Time;durP1;ratioP1;P1;durP2;ratioP2;P2;SDS_P1;SDS_P2;PMS_P1;PMS_P2;Temp;Humidity;BMP_temperature;BMP_pressure;BME280_temperature;BME280_humidity;BME280_pressure;Samples;Min_cycle;Max_cycle;Signal;HPM_P1;HPM_P2
2022/08/04 00:00:25;;;;;;;8.45;3.38;;;;;;;24.97;64.67;101275.00;4945094;28;20027;-71
2022/08/04 00:03:15;;;;;;;11.25;3.70;;;;;;;24.92;64.13;101265.47;4949043;28;20054;-71
2022/08/04 00:05:46;;;;;;;13.55;3.97;;;;;;;24.82;65.04;101267.50;4946238;28;20023;-68
2022/08/04 00:08:30;;;;;;;6.40;3.45;;;;;;;24.87;64.67;101273.47;4945865;28;20049;-70
2022/08/04 00:10:59;;;;;;;9.00;3.75;;;;;;;24.78;65.17;101263.19;4954487;28;20106;-70
2022/08/04 00:13:29;;;;;;;12.95;3.72;;;;;;;24.75;64.96;101258.00;4947266;28;20505;-69
2022/08/04 00:16:03;;;;;;;11.38;3.92;;;;;;;24.75;64.81;101263.25;4945004;28;20066;-69
2022/08/04 00:18:49;;;;;;;12.82;3.97;;;;;;;24.76;64.53;101262.38;4945303;28;20038;-70
2022/08/04 00:21:17;;;;;;;9.40;3.60;;;;;;;24.69;64.99;101259.00;4948724;29;20137;-70
2022/08/04 00:23:43;;;;;;;9.88;4.20;;;;;;;24.67;64.31;101257.34;4943995;28;20522;-68
2022/08/04 00:26:09;;;;;;;15.18;3.80;;;;;;;24.65;64.55;101257.38;4945057;28;20047;-70
2022/08/04 00:28:39;;;;;;;10.25;4.13;;;;;;;24.61;64.35;101264.47;4942646;28;20031;-70
2022/08/04 00:31:10;;;;;;;9.55;4.35;;;;;;;24.63;63.88;101253.03;4945037;28;20054;-70
2022/08/04 00:33:42;;;;;;;11.38;4.47;;;;;;;24.56;64.12;101252.31;4946209;28;20031;-69
2022/08/04 00:36:10;;;;;;;11.20;4.47;;;;;;;24.53;63.63;101250.66;4950063;28;20030;-67
2022/08/04 00:38:36;;;;;;;8.83;4.63;;;;;;;24.52;63.83;101243.66;4948391;28;20160;-69
2022/08/04 00:41:13;;;;;;;16.35;4.35;;;;;;;24.56;63.57;101242.66;4951127;28;20314;-68
2022/08/04 00:44:03;;;;;;;13.23;4.20;;;;;;;24.55;63.58;101245.34;4949503;28;20180;-68
2022/08/04 00:46:46;;;;;;;9.73;4.43;;;;;;;24.50;63.73;101232.28;4936947;28;20035;-69
2022/08/04 00:49:39;;;;;;;11.48;4.53;;;;;;;24.50;63.19;101234.06;4945106;28;20065;-69
2022/08/04 00:52:27;;;;;;;10.80;4.70;;;;;;;24.51;63.04;101244.56;4959187;28;20682;-69
2022/08/04 00:55:09;;;;;;;8.90;4.50;;;;;;;24.48;63.17;101236.75;4944146;28;20042;-70
2022/08/04 00:57:44;;;;;;;8.20;4.22;;;;;;;24.42;63.24;101236.03;4948928;28;20031;-70
2022/08/04 01:00:14;;;;;;;9.43;4.53;;;;;;;24.36;63.57;101231.78;4949064;28;20031;-70
2022/08/04 01:02:58;;;;;;;6.60;4.35;;;;;;;24.30;63.49;101231.88;4946190;28;20136;-70
2022/08/04 01:05:53;;;;;;;12.93;4.93;;;;;;;24.36;63.46;101236.16;4956418;28;20406;-69
2022/08/04 01:08:30;;;;;;;7.85;4.53;;;;;;;24.33;63.46;101229.19;4954372;28;20093;-69
2022/08/04 01:11:42;;;;;;;8.63;4.22;;;;;;;24.34;63.54;101229.19;4951185;28;20027;-70
2022/08/04 01:14:41;;;;;;;10.68;4.50;;;;;;;24.32;63.56;101217.78;4958784;28;20035;-70
2022/08/04 01:17:11;;;;;;;10.43;4.55;;;;;;;24.23;63.80;101211.91;4949882;28;20049;-70
2022/08/04 01:19:56;;;;;;;12.25;4.80;;;;;;;24.27;63.46;101214.44;4949061;28;20401;-70
2022/08/04 01:22:30;;;;;;;9.38;4.38;;;;;;;24.20;64.30;101212.81;4946772;28;20096;-68
2022/08/04 01:25:08;;;;;;;10.48;4.85;;;;;;;24.07;64.15;101208.75;4949479;28;20098;-69
2022/08/04 01:28:22;;;;;;;12.77;4.80;;;;;;;24.21;63.77;101206.69;4949321;28;20683;-69
2022/08/04 01:30:50;;;;;;;16.50;4.75;;;;;;;24.05;64.17;101205.28;4960670;28;20070;-70
2022/08/04 01:33:17;;;;;;;11.77;4.30;;;;;;;24.04;64.25;101206.19;4947346;28;20051;-69
2022/08/04 01:35:42;;;;;;;14.52;4.85;;;;;;;24.01;64.19;101206.25;4948370;28;20043;-69
2022/08/04 01:38:42;;;;;;;13.88;4.95;;;;;;;24.07;63.74;101199.09;4950662;28;20418;-69
2022/08/04 01:41:12;;;;;;;11.52;4.28;;;;;;;23.97;64.33;101194.97;4953687;28;20130;-70
2022/08/04 01:43:42;;;;;;;11.57;4.93;;;;;;;23.96;64.66;101202.84;4952248;28;20061;-71
2022/08/04 01:46:12;;;;;;;13.35;4.82;;;;;;;23.93;64.43;101193.28;4950714;28;20090;-69
2022/08/04 01:48:39;;;;;;;14.98;5.30;;;;;;;23.78;64.93;101191.88;4951754;28;20084;-70
2022/08/04 01:51:07;;;;;;;10.48;5.18;;;;;;;23.86;64.76;101189.09;4948110;28;20023;-70
2022/08/04 01:53:35;;;;;;;9.63;4.72;;;;;;;23.83;64.60;101189.13;4947442;28;20432;-69
2022/08/04 01:56:02;;;;;;;12.63;5.47;;;;;;;23.81;64.66;101188.31;4948940;28;20065;-69
2022/08/04 01:58:30;;;;;;;7.78;4.60;;;;;;;23.79;64.42;101188.34;4946701;29;20033;-70
2022/08/04 02:01:04;;;;;;;9.77;4.95;;;;;;;23.80;64.41;101192.69;4948543;28;20118;-70
2022/08/04 02:03:31;;;;;;;10.30;4.72;;;;;;;23.80;64.49;101186.59;4948283;28;20059;-70
2022/08/04 02:06:24;;;;;;;11.10;4.60;;;;;;;23.81;64.48;101178.66;4947853;29;20042;-70
2022/08/04 02:08:56;;;;;;;12.82;4.28;;;;;;;23.78;63.86;101181.38;4949167;28;20088;-70
2022/08/04 02:11:22;;;;;;;8.55;4.40;;;;;;;23.76;64.19;101184.91;4950174;28;20031;-69
2022/08/04 02:14:05;;;;;;;11.13;4.30;;;;;;;23.77;64.21;101177.00;4944617;28;20364;-69
2022/08/04 02:16:46;;;;;;;10.60;4.22;;;;;;;23.75;64.21;101176.19;4957063;28;20478;-70
2022/08/04 02:19:29;;;;;;;13.95;3.75;;;;;;;23.66;64.17;101168.50;4946729;29;20035;-70
2022/08/04 02:22:06;;;;;;;10.85;4.43;;;;;;;23.66;63.80;101168.50;4950963;29;20027;-68
2022/08/04 02:24:39;;;;;;;12.60;4.25;;;;;;;23.60;64.20;101160.72;4948079;29;20040;-69
2022/08/04 02:27:06;;;;;;;10.02;3.95;;;;;;;23.60;63.93;101165.09;4949488;28;20145;-69
2022/08/04 02:29:59;;;;;;;11.25;4.10;;;;;;;23.69;63.81;101163.19;4970142;28;20017;-70
2022/08/04 02:32:26;;;;;;;13.10;4.22;;;;;;;23.61;63.72;101167.72;4952590;28;20019;-70
2022/08/04 02:35:11;;;;;;;10.30;4.18;;;;;;;23.65;63.29;101164.13;4946786;28;20130;-70
2022/08/04 02:37:36;;;;;;;9.73;3.85;;;;;;;23.60;63.59;101165.09;4948517;29;20032;-70
2022/08/04 02:40:05;;;;;;;9.93;3.97;;;;;;;23.55;64.63;101168.69;4948519;28;20046;-69
2022/08/04 02:42:32;;;;;;;13.27;4.00;;;;;;;23.51;63.75;101160.91;4948321;28;20114;-69
2022/08/04 02:44:58;;;;;;;9.70;3.63;;;;;;;23.51;63.57;101158.28;4959841;28;20381;-69
2022/08/04 02:47:26;;;;;;;12.65;4.22;;;;;;;23.47;64.04;101162.72;4937984;28;20028;-70
2022/08/04 02:49:53;;;;;;;9.55;3.97;;;;;;;23.52;63.64;101160.88;4948012;29;20058;-70
2022/08/04 02:52:19;;;;;;;10.02;4.28;;;;;;;23.45;63.88;101151.41;4947383;28;20394;-70
2022/08/04 02:54:50;;;;;;;13.10;3.72;;;;;;;23.43;64.26;101160.22;4942718;29;20035;-70
2022/08/04 02:57:17;;;;;;;10.48;3.80;;;;;;;23.37;64.56;101157.72;4945624;28;20035;-70
2022/08/04 03:00:06;;;;;;;9.65;3.78;;;;;;;23.39;64.36;101151.53;4950761;28;20362;-68
2022/08/04 03:02:59;;;;;;;12.30;4.03;;;;;;;23.36;64.33;101154.22;4946613;28;20034;-70
2022/08/04 03:05:32;;;;;;;10.85;3.80;;;;;;;23.26;65.08;101155.28;4949225;29;20070;-69
2022/08/04 03:08:26;;;;;;;10.77;4.00;;;;;;;23.33;64.58;101153.41;4950372;28;20027;-71
2022/08/04 03:11:16;;;;;;;9.57;3.50;;;;;;;23.29;65.12;101157.84;4950987;29;20049;-69
2022/08/04 03:13:47;;;;;;;11.65;4.10;;;;;;;23.24;64.62;101165.81;4952653;28;20075;-70
2022/08/04 03:16:31;;;;;;;10.15;3.80;;;;;;;23.25;64.88;101157.06;4951465;28;20027;-70
2022/08/04 03:19:17;;;;;;;12.70;4.63;;;;;;;23.21;64.79;101165.88;4948788;28;20500;-70
2022/08/04 03:21:59;;;;;;;9.77;3.65;;;;;;;23.21;64.95;101171.13;4950818;29;20051;-69
2022/08/04 03:24:37;;;;;;;8.93;4.20;;;;;;;23.19;64.73;101172.91;4946691;29;20035;-70
2022/08/04 03:27:29;;;;;;;11.95;3.88;;;;;;;23.27;64.57;101167.50;4945763;28;20121;-69
2022/08/04 03:30:05;;;;;;;16.45;4.13;;;;;;;23.20;65.36;101168.53;4954478;28;20463;-69
2022/08/04 03:32:43;;;;;;;14.88;4.00;;;;;;;23.21;65.47;101158.00;4946742;28;20031;-69
2022/08/04 03:35:23;;;;;;;10.23;4.03;;;;;;;23.23;64.88;101157.97;4948699;28;20412;-70
2022/08/04 03:38:19;;;;;;;10.90;3.90;;;;;;;23.21;64.83;101165.00;4945019;28;20023;-70
2022/08/04 03:41:05;;;;;;;9.30;3.65;;;;;;;23.14;64.99;101160.78;4944227;28;20035;-68
2022/08/04 03:44:09;;;;;;;11.07;3.53;;;;;;;23.21;64.84;101163.25;4951160;28;20038;-70
2022/08/04 03:46:53;;;;;;;9.57;3.55;;;;;;;23.19;65.13;101170.28;4944994;28;20089;-70
2022/08/04 03:49:43;;;;;;;11.88;4.22;;;;;;;23.16;65.08;101161.59;4948184;29;20073;-69
2022/08/04 03:55:57;;;;;;;9.82;4.18;;;;;;;23.12;65.10;101176.56;4949436;28;20084;-70
2022/08/04 03:59:00;;;;;;;11.90;4.38;;;;;;;23.07;65.13;101191.50;4944272;28;20417;-69
2022/08/04 04:01:50;;;;;;;12.55;3.75;;;;;;;23.05;65.85;101187.16;4949772;28;20482;-69
2022/08/04 04:04:40;;;;;;;12.52;4.22;;;;;;;23.00;65.90;101182.88;4946623;29;20589;-70
2022/08/04 04:07:40;;;;;;;11.90;4.60;;;;;;;22.97;66.34;101182.06;4941374;28;20028;-71
2022/08/04 04:10:24;;;;;;;11.05;4.45;;;;;;;22.87;66.92;101176.16;4947103;29;20031;-70
2022/08/04 04:13:28;;;;;;;11.60;4.60;;;;;;;22.94;66.71;101177.75;4946153;28;20078;-69
2022/08/04 04:16:40;;;;;;;12.70;4.80;;;;;;;22.96;66.90;101182.97;4945581;29;20059;-68
2022/08/04 04:19:21;;;;;;;11.90;4.55;;;;;;;22.85;68.12;101187.50;4947851;28;20030;-70
2022/08/04 04:21:55;;;;;;;12.40;5.13;;;;;;;22.85;67.60;101182.25;4948444;29;20398;-69
2022/08/04 04:24:32;;;;;;;9.77;4.90;;;;;;;22.78;68.43;101186.75;4945739;28;20166;-68
2022/08/04 04:27:16;;;;;;;9.07;5.07;;;;;;;22.75;68.43;101186.78;4947247;29;20478;-69
2022/08/04 04:30:00;;;;;;;11.50;5.80;;;;;;;22.77;68.27;101189.41;4947732;28;20114;-69
2022/08/04 04:33:04;;;;;;;14.00;5.10;;;;;;;22.81;68.08;101186.66;4947365;28;20039;-69
2022/08/04 04:36:06;;;;;;;14.20;5.55;;;;;;;22.78;68.09;101192.00;4946616;28;20034;-69
2022/08/04 04:39:00;;;;;;;17.50;6.75;;;;;;;22.74;68.84;101185.91;4945719;28;20030;-69
2022/08/04 04:42:03;;;;;;;8.65;5.20;;;;;;;22.77;68.77;101199.88;4950350;28;20027;-70
2022/08/04 04:44:47;;;;;;;11.55;6.00;;;;;;;22.77;69.01;101186.78;4939330;28;20043;-69
2022/08/04 04:47:22;;;;;;;10.25;4.95;;;;;;;22.70;69.18;101184.25;4951032;28;20023;-70
2022/08/04 04:49:50;;;;;;;10.45;5.65;;;;;;;22.69;69.44;101182.53;4950581;28;20020;-70
2022/08/04 04:52:30;;;;;;;12.77;5.38;;;;;;;22.73;69.81;101181.56;4949339;28;20027;-70
2022/08/04 04:55:20;;;;;;;8.50;4.82;;;;;;;22.73;70.19;101186.81;4945930;28;20079;-69
2022/08/04 04:57:49;;;;;;;10.30;5.22;;;;;;;22.71;70.94;101193.00;4944646;28;20039;-70
2022/08/04 05:00:16;;;;;;;8.57;4.95;;;;;;;22.70;70.67;101188.63;4946015;28;20023;-69
2022/08/04 05:02:51;;;;;;;10.50;5.45;;;;;;;22.75;71.49;101192.03;4949681;28;20043;-69
2022/08/04 05:05:54;;;;;;;10.70;5.40;;;;;;;22.83;70.30;101205.03;4945729;29;20102;-72
2022/08/04 05:08:29;;;;;;;11.18;5.47;;;;;;;22.77;71.20;101199.88;4949128;28;20054;-70
2022/08/04 05:11:00;;;;;;;12.38;5.03;;;;;;;;;;4947086;28;20080;-70
2022/08/04 05:13:43;;;;;;;11.38;5.40;;;;;;;22.85;70.68;101190.13;4948521;28;20108;-71
2022/08/04 05:16:24;;;;;;;12.43;5.70;;;;;;;22.87;70.99;101196.22;4948146;28;20034;-71
2022/08/04 05:19:19;;;;;;;12.35;5.20;;;;;;;22.93;70.65;101188.25;4947932;28;20031;-70
2022/08/04 05:21:55;;;;;;;10.13;5.72;;;;;;;22.92;70.58;101186.53;4946482;28;20105;-68
2022/08/04 05:24:22;;;;;;;12.65;5.57;;;;;;;22.87;71.44;101194.50;4945436;29;20085;-70
2022/08/04 05:26:52;;;;;;;11.02;5.63;;;;;;;22.91;71.95;101192.66;4929494;28;20383;-70
2022/08/04 05:29:41;;;;;;;15.38;5.90;;;;;;;22.96;71.55;101193.44;4949625;28;20032;-70
2022/08/04 05:32:11;;;;;;;;;;;;;;;23.08;70.47;101189.75;4948432;29;20135;-70
2022/08/04 05:34:51;;;;;;;12.38;5.93;;;;;;;22.98;72.30;101189.91;4948063;28;20039;-70
2022/08/04 05:37:19;;;;;;;13.77;5.63;;;;;;;22.98;71.91;101196.91;4944362;29;20038;-67
2022/08/04 05:39:52;;;;;;;16.88;6.22;;;;;;;22.97;71.34;101193.41;4944373;28;20023;-71
2022/08/04 05:42:18;;;;;;;12.50;6.07;;;;;;;23.01;72.33;101202.97;4948856;28;20027;-71
2022/08/04 05:44:45;;;;;;;13.23;5.93;;;;;;;23.02;72.49;101194.22;4947358;29;20101;-71
2022/08/04 05:47:12;;;;;;;12.65;5.97;;;;;;;23.04;71.59;101188.06;4944350;28;20448;-71
2022/08/04 05:49:40;;;;;;;12.90;6.70;;;;;;;23.04;71.14;101185.44;4949824;28;20386;-71
2022/08/04 05:52:06;;;;;;;18.40;7.03;;;;;;;23.07;71.00;101178.41;4948354;28;20035;-68
2022/08/04 05:54:34;;;;;;;18.98;6.80;;;;;;;23.06;71.11;101178.44;4951306;28;20062;-70
2022/08/04 05:57:03;;;;;;;18.80;6.47;;;;;;;23.06;71.73;101176.66;4952459;28;20548;-71
2022/08/04 05:59:30;;;;;;;11.55;6.22;;;;;;;23.09;71.48;101179.22;4949133;28;20027;-71
2022/08/04 06:01:59;;;;;;;10.45;5.55;;;;;;;23.13;72.13;101177.41;4952791;28;20051;-72
2022/08/04 06:04:31;;;;;;;11.95;5.50;;;;;;;23.16;72.06;101179.97;4952183;28;20416;-71
2022/08/04 06:06:57;;;;;;;11.02;5.80;;;;;;;23.18;71.66;101178.19;4950083;28;20031;-72
2022/08/04 06:09:22;;;;;;;13.02;5.57;;;;;;;23.19;71.59;101177.31;4948409;28;20058;-71
2022/08/04 06:11:51;;;;;;;14.70;5.57;;;;;;;23.22;71.92;101191.19;4950234;28;20031;-72
2022/08/04 06:14:18;;;;;;;17.10;6.40;;;;;;;23.24;71.78;101186.81;4950412;28;20023;-71
2022/08/04 06:16:45;;;;;;;12.35;5.63;;;;;;;23.26;71.73;101184.16;4950758;28;20031;-71
2022/08/04 06:19:14;;;;;;;18.13;6.10;;;;;;;23.27;75.77;101180.63;4947679;28;20502;-72
2022/08/04 06:21:44;;;;;;;15.23;5.45;;;;;;;23.31;74.18;101184.06;4952544;28;20035;-71
2022/08/04 06:24:13;;;;;;;10.32;5.15;;;;;;;23.29;74.68;101187.56;4951150;28;20023;-70
2022/08/04 06:26:39;;;;;;;11.55;5.50;;;;;;;23.29;75.67;101190.19;4951972;28;20054;-71
2022/08/04 06:29:16;;;;;;;10.90;6.03;;;;;;;23.29;75.42;101184.94;4950324;28;20035;-71
2022/08/04 06:31:45;;;;;;;11.40;6.60;;;;;;;23.21;75.71;101180.75;4951448;28;20051;-69
2022/08/04 06:34:13;;;;;;;12.35;5.97;;;;;;;23.27;75.48;101180.63;4951037;28;20034;-69
2022/08/04 06:36:39;;;;;;;12.35;6.55;;;;;;;23.32;75.13;101188.41;4953446;28;20034;-71
2022/08/04 06:39:07;;;;;;;16.00;6.78;;;;;;;23.35;74.88;101204.09;4951578;28;20035;-71
2022/08/04 06:41:33;;;;;;;14.43;6.65;;;;;;;23.35;74.50;101198.84;4948396;28;20035;-70
2022/08/04 06:44:02;;;;;;;14.60;7.68;;;;;;;23.48;73.94;101201.22;4963305;28;20035;-71
2022/08/04 06:46:29;;;;;;;12.68;7.30;;;;;;;23.54;73.55;101210.72;4952239;28;20375;-71
2022/08/04 06:48:55;;;;;;;11.18;7.15;;;;;;;23.59;72.99;101208.84;4950425;28;20081;-70
2022/08/04 06:51:22;;;;;;;13.13;6.70;;;;;;;23.65;73.30;101214.00;4951208;28;20023;-71
2022/08/04 06:53:47;;;;;;;17.10;7.15;;;;;;;23.65;73.27;101213.16;4952974;28;20027;-71
2022/08/04 06:56:17;;;;;;;14.02;6.70;;;;;;;23.72;73.52;101212.13;4953252;28;20041;-70
2022/08/04 06:58:45;;;;;;;17.50;7.28;;;;;;;23.69;72.90;101217.44;4950782;28;20470;-70
2022/08/04 07:01:12;;;;;;;15.60;7.13;;;;;;;23.77;73.39;101223.41;4951140;28;20541;-71
2022/08/04 07:03:38;;;;;;;14.32;7.22;;;;;;;23.87;73.59;101224.94;4952008;28;20023;-70
2022/08/04 07:06:04;;;;;;;12.70;7.20;;;;;;;23.92;73.70;101217.84;4947227;28;20046;-71
2022/08/04 07:08:29;;;;;;;14.38;8.10;;;;;;;24.00;72.87;101218.53;4951436;28;20160;-71
2022/08/04 07:10:57;;;;;;;10.68;6.85;;;;;;;24.15;72.51;101216.47;4950827;28;20031;-71
2022/08/04 07:13:26;;;;;;;14.60;6.90;;;;;;;24.25;72.19;101212.72;4944995;28;20217;-72
2022/08/04 07:15:52;;;;;;;11.88;6.97;;;;;;;24.31;72.35;101215.19;4951186;28;20080;-71
2022/08/04 07:18:18;;;;;;;15.05;6.93;;;;;;;24.24;71.90;101211.00;4950894;28;20031;-71
2022/08/04 07:20:45;;;;;;;17.10;7.72;;;;;;;24.26;71.72;101217.06;4950610;28;20378;-71
2022/08/04 07:23:16;;;;;;;13.80;7.97;;;;;;;24.30;71.96;101214.34;4947436;28;20043;-71
2022/08/04 07:25:42;;;;;;;17.13;7.53;;;;;;;24.37;71.16;101220.34;4950305;28;20035;-69
2022/08/04 07:28:08;;;;;;;12.85;7.82;;;;;;;24.40;70.73;101222.91;4950076;28;20031;-70
2022/08/04 07:30:34;;;;;;;15.02;7.60;;;;;;;24.41;70.33;101222.03;4948285;28;20035;-69
2022/08/04 07:33:01;;;;;;;18.05;8.02;;;;;;;24.43;69.59;101216.72;4949534;28;20039;-69
2022/08/04 07:35:28;;;;;;;14.98;8.20;;;;;;;24.53;69.49;101224.34;4943493;28;20110;-70
2022/08/04 07:37:53;;;;;;;15.30;7.75;;;;;;;24.65;69.17;101217.06;4947498;28;20043;-71
2022/08/04 07:40:19;;;;;;;15.80;7.60;;;;;;;24.71;69.04;101224.81;4950808;28;21281;-70
2022/08/04 07:42:45;;;;;;;15.35;8.15;;;;;;;24.83;69.12;101217.47;4943269;28;20028;-70
2022/08/04 07:45:11;;;;;;;14.98;7.30;;;;;;;24.95;68.19;101218.06;4952548;28;20108;-71
2022/08/04 07:47:41;;;;;;;11.63;7.18;;;;;;;25.00;68.71;101214.41;4944722;28;20536;-70
2022/08/04 07:50:11;;;;;;;17.70;7.40;;;;;;;25.13;67.25;101225.50;4931673;28;20371;-71
2022/08/04 07:52:37;;;;;;;18.40;6.68;;;;;;;25.21;67.03;101234.06;4949935;28;20119;-71
2022/08/04 07:55:04;;;;;;;14.73;5.95;;;;;;;25.29;66.56;101229.44;4947429;28;20042;-71
2022/08/04 07:57:29;;;;;;;14.25;6.07;;;;;;;25.32;65.78;101233.78;4950424;28;20027;-72
2022/08/04 07:59:55;;;;;;;15.02;5.95;;;;;;;25.40;65.03;101231.78;4944360;28;20043;-69
2022/08/04 08:02:21;;;;;;;16.45;6.38;;;;;;;25.43;64.01;101231.72;4949611;28;20448;-69
2022/08/04 08:04:48;;;;;;;13.18;4.57;;;;;;;25.56;64.46;101230.47;4948465;28;20046;-71
2022/08/04 08:07:13;;;;;;;13.00;5.03;;;;;;;25.59;64.03;101238.25;4951075;28;20035;-70
2022/08/04 08:09:39;;;;;;;10.93;4.70;;;;;;;25.75;64.24;101229.97;4951192;28;20061;-71
2022/08/04 08:12:07;;;;;;;8.32;4.20;;;;;;;25.82;64.15;101245.53;4950414;28;20041;-70
2022/08/04 08:14:34;;;;;;;14.00;4.17;;;;;;;25.90;63.35;101242.66;4949326;28;20027;-71
2022/08/04 08:17:01;;;;;;;12.15;4.00;;;;;;;25.96;63.27;101249.53;4954220;28;20034;-72
2022/08/04 08:19:27;;;;;;;11.52;3.95;;;;;;;26.05;64.13;101246.63;4952473;28;20028;-72
2022/08/04 08:21:53;;;;;;;12.32;3.85;;;;;;;26.12;62.87;101248.19;4931365;28;20033;-68
2022/08/04 08:24:18;;;;;;;8.75;4.53;;;;;;;26.13;61.49;101245.47;4952185;28;20035;-71
2022/08/04 08:26:44;;;;;;;10.27;4.10;;;;;;;26.18;61.26;101248.00;4951675;28;20077;-70
2022/08/04 08:29:09;;;;;;;10.55;3.50;;;;;;;26.26;61.37;101251.25;4949388;28;20038;-72
2022/08/04 08:31:35;;;;;;;10.60;3.55;;;;;;;26.25;60.72;101254.78;4955014;28;20089;-71
2022/08/04 08:34:01;;;;;;;6.55;3.03;;;;;;;26.28;60.65;101251.22;4952401;28;20050;-72
2022/08/04 08:36:46;;;;;;;8.02;2.30;;;;;;;26.32;61.36;101258.09;4958665;28;20039;-70
2022/08/04 08:39:24;;;;;;;7.45;2.42;;;;;;;26.36;58.80;101259.75;4958919;28;20039;-72
2022/08/04 08:42:28;;;;;;;9.07;2.30;;;;;;;26.38;58.21;101257.91;4971637;28;20023;-65
2022/08/04 08:45:09;;;;;;;10.45;3.10;;;;;;;26.44;59.51;101263.03;4950691;28;20092;-67
2022/08/04 08:47:37;;;;;;;9.23;3.20;;;;;;;26.42;58.96;101263.06;4951052;28;20520;-66
2022/08/04 08:50:20;;;;;;;11.10;3.40;;;;;;;26.55;60.16;101267.97;4949826;28;20035;-68
2022/08/04 08:52:59;;;;;;;8.30;2.60;;;;;;;26.61;59.03;101271.25;4942273;28;20085;-65
2022/08/04 08:55:45;;;;;;;10.18;2.88;;;;;;;26.67;59.35;101271.06;4951485;28;20031;-65
2022/08/04 08:58:29;;;;;;;6.63;1.77;;;;;;;26.74;58.11;101271.72;4950030;28;20038;-65
2022/08/04 09:01:15;;;;;;;8.48;2.20;;;;;;;26.83;57.74;101276.72;4950951;29;20089;-66
2022/08/04 09:04:00;;;;;;;7.75;2.30;;;;;;;26.84;57.39;101274.94;4951170;28;20034;-68
2022/08/04 09:07:02;;;;;;;7.95;1.95;;;;;;;26.86;57.80;101278.38;4951798;28;20031;-66
2022/08/04 09:09:31;;;;;;;6.93;1.90;;;;;;;26.93;57.69;101270.19;4950130;28;20059;-65
2022/08/04 09:12:08;;;;;;;7.78;2.28;;;;;;;26.99;57.60;101284.97;4948487;28;20034;-66
2022/08/04 09:14:42;;;;;;;12.02;2.03;;;;;;;27.09;57.48;101289.06;4952557;28;20121;-67
2022/08/04 09:17:20;;;;;;;7.30;2.08;;;;;;;27.05;56.16;101279.47;4947661;28;20038;-66
2022/08/04 09:19:56;;;;;;;7.05;2.35;;;;;;;26.96;55.67;101293.88;4963043;28;20373;-66
2022/08/04 09:22:31;;;;;;;8.88;2.17;;;;;;;26.98;56.78;101293.81;4948559;29;20046;-66
2022/08/04 09:25:27;;;;;;;7.45;1.90;;;;;;;27.00;56.57;101289.34;4952497;28;20031;-64
2022/08/04 09:27:54;;;;;;;10.05;1.88;;;;;;;26.93;55.23;101293.09;4955873;28;20058;-66
2022/08/04 09:30:44;;;;;;;14.45;2.00;;;;;;;26.90;55.95;101296.72;4953745;28;20038;-64
2022/08/04 09:33:29;;;;;;;8.60;2.10;;;;;;;26.93;56.15;101307.16;4965780;28;20070;-66
2022/08/04 09:36:06;;;;;;;8.70;2.08;;;;;;;26.88;56.16;101306.47;4952468;28;20114;-67
2022/08/04 09:38:57;;;;;;;8.40;1.73;;;;;;;26.85;56.19;101303.91;4949689;28;20035;-67
2022/08/04 09:41:37;;;;;;;9.18;1.95;;;;;;;26.86;56.42;101310.03;4946800;28;20035;-66
2022/08/04 09:44:34;;;;;;;8.63;1.77;;;;;;;26.89;55.92;101307.31;4945953;29;20066;-65
2022/08/04 09:47:16;;;;;;;6.05;1.80;;;;;;;26.87;56.49;101312.63;4970193;28;20047;-66
2022/08/04 09:50:27;;;;;;;11.63;2.30;;;;;;;26.84;56.39;101319.78;4951660;29;20034;-65
2022/08/04 09:53:05;;;;;;;9.32;1.65;;;;;;;26.78;55.83;101327.91;4950574;28;20138;-65
2022/08/04 09:55:46;;;;;;;10.48;2.30;;;;;;;26.72;56.10;101335.09;4950787;29;20035;-66
2022/08/04 09:58:27;;;;;;;9.15;2.00;;;;;;;26.73;57.20;101344.72;4959434;28;20079;-67
2022/08/04 10:01:05;;;;;;;11.45;1.90;;;;;;;26.65;57.16;101346.75;4946119;28;20054;-66
2022/08/04 10:03:34;;;;;;;10.73;2.10;;;;;;;26.63;57.71;101359.09;4949242;28;20032;-65
2022/08/04 10:06:21;;;;;;;11.65;1.75;;;;;;;26.60;57.06;101351.31;4946741;28;20055;-66
2022/08/04 10:09:14;;;;;;;8.07;2.10;;;;;;;26.62;57.39;101351.25;4950977;28;20061;-66
2022/08/04 10:11:56;;;;;;;11.63;1.88;;;;;;;26.57;57.47;101364.56;4950992;28;20023;-66
2022/08/04 10:14:55;;;;;;;12.20;2.88;;;;;;;26.53;58.00;101352.41;4951073;28;20035;-66
2022/08/04 10:17:23;;;;;;;10.20;1.98;;;;;;;26.38;60.76;101356.31;4950530;28;20039;-66
2022/08/04 10:19:59;;;;;;;6.57;2.00;;;;;;;26.34;61.84;101344.16;4949654;28;20543;-66
2022/08/04 10:22:30;;;;;;;6.57;2.10;;;;;;;26.22;62.00;101354.22;4946090;28;20031;-65
2022/08/04 10:25:04;;;;;;;10.45;2.20;;;;;;;26.15;62.26;101407.09;4947643;28;20047;-66
2022/08/04 10:28:01;;;;;;;10.13;2.00;;;;;;;26.12;62.74;101425.63;4947718;28;20125;-66
2022/08/04 10:30:30;;;;;;;9.87;2.00;;;;;;;26.03;64.64;101449.59;4953606;28;20039;-68
2022/08/04 10:33:14;;;;;;;10.05;2.60;;;;;;;26.03;66.53;101423.25;4947337;29;20039;-68
2022/08/04 10:35:49;;;;;;;9.98;2.58;;;;;;;25.91;68.82;101436.75;4948711;28;20467;-68
2022/08/04 10:38:59;;;;;;;7.68;2.30;;;;;;;25.95;67.93;101425.22;4951037;28;20034;-68
2022/08/04 10:41:41;;;;;;;8.23;2.70;;;;;;;25.78;71.25;101414.25;4974209;28;20554;-69
2022/08/04 10:44:39;;;;;;;8.52;2.47;;;;;;;25.73;70.77;101411.75;4950576;28;20114;-69
2022/08/04 10:47:19;;;;;;;11.73;2.60;;;;;;;25.62;72.39;101377.75;4951927;28;20457;-69
2022/08/04 10:49:54;;;;;;;11.90;2.60;;;;;;;25.59;72.85;101375.19;4949831;29;20033;-69
2022/08/04 10:52:41;;;;;;;9.93;2.85;;;;;;;25.52;72.23;101360.47;4960184;28;20058;-70
2022/08/04 10:55:12;;;;;;;6.03;2.55;;;;;;;25.43;72.21;101346.69;4959087;28;20034;-70
2022/08/04 10:58:03;;;;;;;3.90;2.42;;;;;;;25.40;72.77;101344.97;4958452;28;20035;-69
2022/08/04 11:00:32;;;;;;;7.65;2.95;;;;;;;25.34;76.69;101353.03;4953415;28;20042;-69
2022/08/04 11:03:19;;;;;;;8.98;2.75;;;;;;;25.33;73.69;101357.44;4947548;28;20398;-69
2022/08/04 11:05:49;;;;;;;8.57;3.08;;;;;;;25.25;74.26;101371.72;4951839;28;20122;-69
2022/08/04 11:08:35;;;;;;;9.25;2.80;;;;;;;25.32;73.52;101386.44;4947620;28;20089;-69
2022/08/04 11:11:21;;;;;;;7.30;2.85;;;;;;;25.28;74.90;101390.91;4951716;28;20035;-69
2022/08/04 11:13:54;;;;;;;8.00;2.72;;;;;;;25.25;75.53;101383.09;4958758;28;20023;-69
2022/08/04 11:16:25;;;;;;;8.63;2.85;;;;;;;25.22;74.33;101377.03;4953782;28;20027;-69
2022/08/04 11:19:41;;;;;;;5.13;2.75;;;;;;;25.23;72.76;101350.66;4951174;28;20046;-69
2022/08/04 11:22:19;;;;;;;5.03;2.53;;;;;;;25.13;72.98;101350.06;4964258;28;20042;-68
2022/08/04 11:24:52;;;;;;;5.83;2.67;;;;;;;25.10;72.52;101351.88;4951587;28;20051;-69
2022/08/04 11:27:34;;;;;;;6.32;2.50;;;;;;;25.06;72.93;101353.75;4951922;28;20113;-68
2022/08/04 11:30:12;;;;;;;9.00;2.65;;;;;;;25.09;73.88;101355.41;4951081;28;20023;-68
2022/08/04 11:33:15;;;;;;;9.13;2.88;;;;;;;25.19;72.96;101353.44;4948288;28;20019;-68
2022/08/04 11:35:49;;;;;;;4.30;2.40;;;;;;;25.11;75.22;101351.84;4955843;28;20047;-68
2022/08/04 11:38:27;;;;;;;6.38;2.97;;;;;;;25.16;73.95;101354.34;4951494;28;20027;-68
2022/08/04 11:40:59;;;;;;;8.15;2.70;;;;;;;25.14;73.88;101346.50;4950659;28;20427;-69
2022/08/04 11:43:32;;;;;;;6.53;2.80;;;;;;;25.11;72.39;101346.56;4959804;28;20478;-68
2022/08/04 11:46:02;;;;;;;5.75;2.65;;;;;;;25.18;72.58;101341.16;4946507;28;20024;-67
2022/08/04 11:48:40;;;;;;;7.07;2.88;;;;;;;25.24;73.29;101356.78;4949467;28;20027;-65
2022/08/04 11:51:08;;;;;;;;;;;;;;;25.43;71.78;101359.84;4964892;28;20054;-67
2022/08/04 11:53:36;;;;;;;5.30;2.88;;;;;;;25.41;73.73;101357.25;4947576;28;20014;-67
2022/08/04 11:56:04;;;;;;;8.70;2.72;;;;;;;25.40;71.68;101358.16;4943843;28;20057;-67
2022/08/04 11:58:30;;;;;;;6.63;2.50;;;;;;;25.48;72.47;101361.47;4950359;28;20031;-67
2022/08/04 12:01:30;;;;;;;8.07;2.40;;;;;;;25.49;68.79;101354.44;4947233;28;20348;-67
2022/08/04 12:04:04;;;;;;;7.35;2.30;;;;;;;25.45;69.92;101353.63;4945416;28;20042;-67
2022/08/04 12:06:32;;;;;;;6.30;2.38;;;;;;;25.57;70.03;101355.09;4950080;28;20039;-66
2022/08/04 12:09:35;;;;;;;6.22;2.50;;;;;;;25.68;70.05;101355.66;4960093;28;20031;-66